Time;durP1;ratioP1;P1;durP2;ratioP2;P2;SDS_P1;SDS_P2;PMS_P1;PMS_P2;Temp;Humidity;BMP_temperature;BMP_pressure;BME280_temperature;BME280_humidity;BME280_pressure;Samples;Min_cycle;Max_cycle;Signal;HPM_P1;HPM_P2
2022/12/07 00:00:21;;;;;;;65.53;40.50;;;;;;;;;;5002200;28;20034;-75
2022/12/07 00:02:47;;;;;;;60.17;40.78;;;;;;;;;;4985353;28;20026;-75
2022/12/07 00:05:13;;;;;;;64.70;42.13;;;;;;;;;;5005212;28;20073;-75
2022/12/07 00:07:39;;;;;;;70.78;43.00;;;;;;;;;;5008928;28;20406;-75
2022/12/07 00:10:06;;;;;;;67.57;41.45;;;;;;;;;;5003028;28;20072;-75
2022/12/07 00:12:32;;;;;;;53.58;35.30;;;;;;;;;;5006115;28;20605;-75
2022/12/07 00:14:58;;;;;;;59.70;37.10;;;;;;;;;;5003182;28;20034;-75
2022/12/07 00:17:24;;;;;;;53.60;32.45;;;;;;;;;;5002378;28;20121;-75
2022/12/07 00:19:49;;;;;;;54.10;32.78;;;;;;;;;;4983802;28;20034;-75
2022/12/07 00:22:16;;;;;;;54.28;32.08;;;;;;;;;;5004466;28;20042;-75
2022/12/07 00:24:42;;;;;;;52.08;30.67;;;;;;;;;;5006125;28;20053;-75
2022/12/07 00:27:08;;;;;;;52.80;30.42;;;;;;;;;;5003063;28;20026;-75
2022/12/07 00:29:33;;;;;;;49.13;30.48;;;;;;;;;;4999202;28;20061;-75
2022/12/07 00:31:59;;;;;;;52.75;33.35;;;;;;;;;;5001908;28;20121;-75
2022/12/07 00:34:25;;;;;;;52.78;32.20;;;;;;;;;;5002845;28;20030;-75
2022/12/07 00:36:51;;;;;;;49.13;30.60;;;;;;;;;;4997122;28;20030;-75
2022/12/07 00:39:17;;;;;;;43.47;28.88;;;;;;;;;;5001656;28;20065;-75
2022/12/07 00:41:43;;;;;;;48.72;28.05;;;;;;;;;;5005756;28;20148;-75
2022/12/07 00:44:10;;;;;;;44.13;29.13;;;;;;;;;;5003444;28;20046;-75
2022/12/07 00:46:36;;;;;;;42.83;27.38;;;;;;;;;;4987040;28;20814;-75
2022/12/07 00:49:02;;;;;;;44.15;27.27;;;;;;;;;;5005972;28;20037;-75
2022/12/07 00:51:28;;;;;;;41.75;26.30;;;;;;;;;;5007825;28;20023;-75
2022/12/07 00:53:54;;;;;;;43.65;27.02;;;;;;;;;;5005203;28;20034;-75
2022/12/07 00:56:21;;;;;;;41.42;26.67;;;;;;;;;;5002368;28;20034;-74
2022/12/07 00:58:52;;;;;;;55.88;33.90;;;;;;;;;;5006584;28;20061;-75
2022/12/07 01:01:18;;;;;;;47.45;31.75;;;;;;;;;;5004768;28;20112;-75
2022/12/07 01:03:44;;;;;;;56.90;37.20;;;;;;;;;;5003711;28;20108;-75
2022/12/07 01:06:10;;;;;;;71.30;49.42;;;;;;;;;;5002254;28;20034;-75
2022/12/07 01:08:36;;;;;;;63.20;42.10;;;;;;;;;;5001696;28;20080;-75
2022/12/07 01:11:03;;;;;;;55.72;38.60;;;;;;;;;;4995382;28;20034;-75
2022/12/07 01:13:30;;;;;;;51.08;38.13;;;;;;;;;;5004790;28;20711;-75
2022/12/07 01:15:59;;;;;;;53.97;37.88;;;;;;;;;;5008084;28;20034;-75
2022/12/07 01:18:26;;;;;;;41.72;31.45;;;;;;;;;;5005655;28;20096;-75
2022/12/07 01:21:10;;;;;;;45.40;31.95;;;;;;;;;;5006578;28;20598;-75
2022/12/07 01:23:36;;;;;;;50.17;33.17;;;;;;;;;;4999932;28;20030;-75
2022/12/07 01:26:07;;;;;;;55.90;42.88;;;;;;;;;;5005315;28;20022;-75
2022/12/07 01:28:33;;;;;;;55.70;40.83;;;;;;;;;;5002408;28;20030;-75
2022/12/07 01:31:00;;;;;;;49.50;37.35;;;;;;;;;;5007927;28;20438;-75
2022/12/07 01:33:30;;;;;;;64.47;47.88;;;;;;;;;;4987839;28;20129;-75
2022/12/07 01:36:07;;;;;;;57.65;41.47;;;;;;;;;;5005946;28;20041;-75
2022/12/07 01:38:34;;;;;;;54.03;40.10;;;;;;;;;;5001962;28;20046;-75
2022/12/07 01:41:01;;;;;;;50.63;34.53;;;;;;;;;;5005728;28;20096;-75
2022/12/07 01:43:28;;;;;;;59.20;40.17;;;;;;;;;;5003462;28;20052;-75
2022/12/07 01:45:54;;;;;;;43.67;30.92;;;;;;;;;;5005263;28;20088;-75
2022/12/07 01:48:26;;;;;;;50.20;34.83;;;;;;;;;;5004182;28;20049;-75
2022/12/07 01:50:53;;;;;;;45.97;31.40;;;;;;;;;;5004555;28;20023;-75
2022/12/07 01:53:20;;;;;;;42.83;30.02;;;;;;;;;;5001043;28;20037;-75
2022/12/07 01:55:48;;;;;;;45.38;30.10;;;;;;;;;;5000280;28;20057;-75
2022/12/07 01:58:15;;;;;;;42.03;28.42;;;;;;;;;;5003220;28;20088;-75
2022/12/07 02:00:42;;;;;;;39.15;27.27;;;;;;;;;;5005348;28;20030;-75
2022/12/07 02:03:10;;;;;;;39.72;28.33;;;;;;;;;;5004510;28;20112;-75
2022/12/07 02:05:38;;;;;;;41.53;26.15;;;;;;;;;;5006639;28;20030;-75
2022/12/07 02:08:04;;;;;;;40.70;24.58;;;;;;;;;;5004463;28;20044;-75
2022/12/07 02:10:31;;;;;;;38.22;24.15;;;;;;;;;;5002313;28;20123;-75
2022/12/07 02:13:06;;;;;;;40.33;24.20;;;;;;;;;;5002079;28;20034;-75
2022/12/07 02:16:01;;;;;;;33.35;21.30;;;;;;;;;;5000402;28;20063;-75
2022/12/07 02:18:37;;;;;;;33.20;20.42;;;;;;;;;;4981804;28;20140;-75
2022/12/07 02:21:12;;;;;;;34.25;22.17;;;;;;;;;;4983368;28;20123;-75
2022/12/07 02:24:01;;;;;;;36.40;21.52;;;;;;;;;;5001311;28;20654;-75
2022/12/07 02:26:29;;;;;;;33.22;21.30;;;;;;;;;;4963738;28;20096;-75
2022/12/07 02:29:00;;;;;;;36.00;21.35;;;;;;;;;;5001539;28;20041;-75
2022/12/07 02:31:29;;;;;;;32.22;19.02;;;;;;;;;;5001644;28;20041;-75
2022/12/07 02:34:05;;;;;;;29.35;18.85;;;;;;;;;;4986325;28;20397;-75
2022/12/07 02:36:34;;;;;;;36.97;21.25;;;;;;;;;;5003468;28;20026;-75
2022/12/07 02:39:00;;;;;;;34.15;20.80;;;;;;;;;;5001479;28;20083;-75
2022/12/07 02:41:28;;;;;;;33.08;20.58;;;;;;;;;;5002377;28;20058;-75
2022/12/07 02:43:56;;;;;;;33.00;20.92;;;;;;;;;;5001114;28;20037;-75
2022/12/07 02:46:24;;;;;;;36.75;23.20;;;;;;;;;;5006871;28;20108;-75
2022/12/07 02:48:50;;;;;;;40.15;26.08;;;;;;;;;;5002531;28;20181;-75
2022/12/07 02:51:18;;;;;;;36.83;22.92;;;;;;;;;;5003278;28;20788;-75
2022/12/07 02:53:44;;;;;;;33.70;22.45;;;;;;;;;;5004120;28;20056;-75
2022/12/07 02:56:25;;;;;;;31.80;19.60;;;;;;;;;;5005317;28;20037;-75
2022/12/07 02:58:51;;;;;;;36.38;22.13;;;;;;;;;;5003125;28;20113;-75
2022/12/07 03:01:20;;;;;;;37.92;21.52;;;;;;;;;;5003322;28;20117;-75
2022/12/07 03:03:49;;;;;;;34.45;21.77;;;;;;;;;;5000163;28;20037;-75
2022/12/07 03:06:15;;;;;;;39.00;23.83;;;;;;;;;;4997201;28;20034;-75
2022/12/07 03:08:47;;;;;;;39.22;23.05;;;;;;;;;;5003506;28;20524;-75
2022/12/07 03:11:14;;;;;;;36.53;22.33;;;;;;;;;;5000465;28;20040;-75
2022/12/07 03:13:54;;;;;;;35.17;22.40;;;;;;;;;;4999957;28;20072;-75
2022/12/07 03:16:22;;;;;;;35.90;21.60;;;;;;;;;;5000433;28;20026;-75
2022/12/07 03:18:58;;;;;;;35.03;21.95;;;;;;;;;;4983162;28;20038;-75
2022/12/07 03:21:25;;;;;;;38.38;23.80;;;;;;;;;;5003458;28;20033;-75
2022/12/07 03:23:54;;;;;;;36.85;22.15;;;;;;;;;;5004630;28;20065;-75
2022/12/07 03:26:21;;;;;;;40.95;24.10;;;;;;;;;;5003827;28;20539;-75
2022/12/07 03:28:53;;;;;;;35.42;21.92;;;;;;;;;;5003527;28;20399;-75
2022/12/07 03:31:24;;;;;;;36.97;22.83;;;;;;;;;;5001155;28;20077;-75
2022/12/07 03:34:07;;;;;;;40.20;23.63;;;;;;;;;;4998417;28;20125;-75
2022/12/07 03:36:38;;;;;;;33.35;19.90;;;;;;;;;;5004236;28;20030;-75
2022/12/07 03:39:12;;;;;;;34.75;21.00;;;;;;;;;;5004465;28;20064;-75
2022/12/07 03:41:39;;;;;;;35.60;21.75;;;;;;;;;;5006074;28;20029;-75
2022/12/07 03:44:05;;;;;;;36.40;21.63;;;;;;;;;;4983024;28;20791;-75
2022/12/07 03:46:38;;;;;;;34.45;21.35;;;;;;;;;;5000205;28;20064;-74
2022/12/07 03:49:24;;;;;;;32.70;19.23;;;;;;;;;;5003045;28;20033;-75
2022/12/07 03:52:08;;;;;;;34.67;22.85;;;;;;;;;;4986801;28;20973;-75
2022/12/07 03:55:01;;;;;;;30.55;19.30;;;;;;;;;;4999296;28;20040;-75
2022/12/07 03:57:28;;;;;;;36.03;21.40;;;;;;;;;;4963487;28;20489;-75
2022/12/07 03:59:55;;;;;;;39.85;23.50;;;;;;;;;;5000039;28;20049;-75
2022/12/07 04:02:22;;;;;;;45.97;28.48;;;;;;;;;;4999205;28;20034;-75
2022/12/07 04:04:48;;;;;;;42.95;28.38;;;;;;;;;;5001285;28;20038;-75
2022/12/07 04:07:14;;;;;;;39.08;26.02;;;;;;;;;;5003463;28;20381;-75
2022/12/07 04:09:40;;;;;;;44.63;29.35;;;;;;;;;;5003703;28;20080;-75
2022/12/07 04:12:06;;;;;;;42.30;26.98;;;;;;;;;;5001820;28;20193;-75
2022/12/07 04:14:32;;;;;;;38.42;25.65;;;;;;;;;;4999362;28;20038;-75
2022/12/07 04:16:59;;;;;;;35.38;21.48;;;;;;;;;;4998089;28;20040;-75
2022/12/07 04:19:26;;;;;;;36.97;22.27;;;;;;;;;;5005525;28;20064;-74
2022/12/07 04:21:52;;;;;;;35.15;21.25;;;;;;;;;;5002089;28;20026;-75
2022/12/07 04:24:18;;;;;;;46.50;27.33;;;;;;;;;;5002789;28;20049;-75
2022/12/07 04:26:46;;;;;;;34.25;21.08;;;;;;;;;;5005705;28;20034;-75
2022/12/07 04:29:12;;;;;;;40.55;24.80;;;;;;;;;;5005957;28;20050;-75
2022/12/07 04:31:38;;;;;;;40.30;23.45;;;;;;;;;;4999162;28;20042;-74
2022/12/07 04:34:05;;;;;;;38.90;23.08;;;;;;;;;;5002240;28;20034;-75
2022/12/07 04:36:31;;;;;;;36.60;24.00;;;;;;;;;;5004521;28;20026;-75
2022/12/07 04:38:57;;;;;;;46.75;28.55;;;;;;;;;;5007692;28;20052;-75
2022/12/07 04:41:26;;;;;;;41.95;26.67;;;;;;;;;;5003597;28;20034;-75
2022/12/07 04:43:56;;;;;;;36.30;23.67;;;;;;;;;;4988272;28;20064;-74
2022/12/07 04:46:23;;;;;;;35.97;22.63;;;;;;;;;;5001864;28;20030;-75
2022/12/07 04:48:49;;;;;;;42.72;27.42;;;;;;;;;;5003716;28;20087;-74
2022/12/07 04:51:18;;;;;;;45.20;30.10;;;;;;;;;;5003905;28;20026;-74
2022/12/07 04:53:44;;;;;;;49.13;30.13;;;;;;;;;;4999108;28;20069;-75
2022/12/07 04:56:10;;;;;;;45.58;31.15;;;;;;;;;;5003749;28;20057;-75
2022/12/07 04:58:36;;;;;;;47.15;29.05;;;;;;;;;;5001698;28;20108;-75
2022/12/07 05:01:02;;;;;;;44.65;28.08;;;;;;;;;;5005642;28;20519;-75
2022/12/07 05:03:28;;;;;;;45.08;25.88;;;;;;;;;;5006403;28;20040;-75
2022/12/07 05:05:54;;;;;;;42.45;26.98;;;;;;;;;;5006045;28;20040;-75
2022/12/07 05:08:20;;;;;;;40.97;27.30;;;;;;;;;;5004132;28;20548;-75
2022/12/07 05:10:46;;;;;;;43.25;26.25;;;;;;;;;;5003876;28;20030;-74
2022/12/07 05:13:12;;;;;;;42.95;28.02;;;;;;;;;;5003705;28;20926;-74
2022/12/07 05:15:38;;;;;;;47.10;28.25;;;;;;;;;;5008754;28;20034;-75
2022/12/07 05:18:04;;;;;;;43.45;25.92;;;;;;;;;;5003677;28;20388;-75
2022/12/07 05:20:30;;;;;;;43.65;27.40;;;;;;;;;;5002753;28;20093;-74
2022/12/07 05:22:58;;;;;;;43.58;26.27;;;;;;;;;;5004153;28;20030;-74
2022/12/07 05:25:24;;;;;;;43.42;26.05;;;;;;;;;;5006526;28;20648;-75
2022/12/07 05:27:50;;;;;;;46.53;31.13;;;;;;;;;;5002993;28;20660;-75
2022/12/07 05:30:16;;;;;;;48.42;30.73;;;;;;;;;;5004503;28;20061;-75
2022/12/07 05:32:42;;;;;;;44.55;27.35;;;;;;;;;;4989358;28;20038;-75
2022/12/07 05:35:08;;;;;;;39.25;25.67;;;;;;;;;;5004920;28;20026;-74
2022/12/07 05:37:34;;;;;;;43.00;26.63;;;;;;;;;;5006487;28;20112;-75
2022/12/07 05:40:00;;;;;;;41.63;25.75;;;;;;;;;;5000399;28;20036;-74
2022/12/07 05:42:26;;;;;;;40.75;24.27;;;;;;;;;;5004449;28;20048;-74
2022/12/07 05:44:52;;;;;;;42.42;24.35;;;;;;;;;;5004643;28;20034;-75
2022/12/07 05:47:18;;;;;;;40.80;25.95;;;;;;;;;;5005944;28;20033;-75
2022/12/07 05:49:44;;;;;;;38.95;24.25;;;;;;;;;;5005164;28;20069;-74
2022/12/07 05:52:10;;;;;;;34.47;21.23;;;;;;;;;;5004686;28;20041;-75
2022/12/07 05:54:36;;;;;;;38.72;23.58;;;;;;;;;;5002209;28;20045;-74
2022/12/07 05:57:02;;;;;;;46.92;25.65;;;;;;;;;;5001913;28;20029;-75
2022/12/07 05:59:28;;;;;;;41.85;27.17;;;;;;;;;;5002265;28;20069;-75
2022/12/07 06:01:54;;;;;;;42.53;26.85;;;;;;;;;;5004599;28;20034;-74
2022/12/07 06:04:21;;;;;;;38.47;25.38;;;;;;;;;;5002434;28;20384;-75
2022/12/07 06:06:47;;;;;;;38.95;24.25;;;;;;;;;;5001588;28;20065;-74
2022/12/07 06:09:13;;;;;;;38.58;23.98;;;;;;;;;;4998748;28;20034;-74
2022/12/07 06:14:25;;;;;;;37.90;23.73;;;;;;;;;;5002113;28;20088;-75
2022/12/07 06:16:51;;;;;;;37.38;24.45;;;;;;;;;;5001441;28;20472;-74
2022/12/07 06:19:17;;;;;;;38.20;24.05;;;;;;;;;;5002578;28;20065;-75
2022/12/07 06:21:43;;;;;;;40.08;25.10;;;;;;;;;;5001282;28;20117;-75
2022/12/07 06:24:11;;;;;;;43.20;25.33;;;;;;;;;;5004135;28;20030;-74
2022/12/07 06:26:37;;;;;;;40.05;23.23;;;;;;;;;;5001610;28;20038;-75
2022/12/07 06:29:03;;;;;;;38.88;23.17;;;;;;;;;;5003897;28;20033;-75
2022/12/07 06:31:29;;;;;;;41.45;24.08;;;;;;;;;;5001242;28;20034;-74
2022/12/07 06:34:02;;;;;;;43.20;24.65;;;;;;;;;;5003749;28;20030;-74
2022/12/07 06:36:28;;;;;;;42.60;26.25;;;;;;;;;;5000449;28;20056;-75
2022/12/07 06:38:54;;;;;;;43.10;24.67;;;;;;;;;;5003853;28;20135;-75
2022/12/07 06:41:20;;;;;;;41.90;24.77;;;;;;;;;;5003691;28;20433;-75
2022/12/07 06:43:46;;;;;;;39.70;24.67;;;;;;;;;;5004024;28;20049;-75
2022/12/07 06:46:12;;;;;;;40.42;26.20;;;;;;;;;;5000986;28;20100;-74
2022/12/07 06:48:38;;;;;;;38.05;24.45;;;;;;;;;;4980091;28;20065;-75
2022/12/07 06:51:04;;;;;;;36.97;23.15;;;;;;;;;;5003450;28;20030;-75
2022/12/07 06:53:30;;;;;;;38.58;24.13;;;;;;;;;;5002845;28;20049;-75
2022/12/07 06:55:56;;;;;;;39.22;23.70;;;;;;;;;;5003091;28;20034;-75
2022/12/07 06:58:22;;;;;;;35.00;21.98;;;;;;;;;;5002087;28;20038;-75
2022/12/07 07:00:50;;;;;;;38.38;21.75;;;;;;;;;;5000585;28;20034;-75
2022/12/07 07:03:16;;;;;;;37.08;22.70;;;;;;;;;;4999758;28;20096;-75
2022/12/07 07:05:42;;;;;;;34.50;21.77;;;;;;;;;;5002767;28;20034;-75
2022/12/07 07:08:08;;;;;;;38.88;23.33;;;;;;;;;;5002224;28;20065;-75
2022/12/07 07:10:35;;;;;;;35.58;22.92;;;;;;;;;;5001037;28;20030;-74
2022/12/07 07:13:01;;;;;;;36.47;22.70;;;;;;;;;;5001976;28;20383;-75
2022/12/07 07:15:27;;;;;;;32.78;21.30;;;;;;;;;;5001829;28;20040;-75
2022/12/07 07:17:53;;;;;;;34.38;19.95;;;;;;;;;;5005056;28;20037;-74
2022/12/07 07:20:19;;;;;;;32.35;20.27;;;;;;;;;;5004330;28;20061;-75
2022/12/07 07:22:45;;;;;;;34.10;19.88;;;;;;;;;;5000942;28;20041;-74
2022/12/07 07:25:11;;;;;;;32.63;21.48;;;;;;;;;;5004056;28;20059;-75
2022/12/07 07:27:37;;;;;;;35.70;21.10;;;;;;;;;;4999101;28;20041;-75
2022/12/07 07:30:03;;;;;;;33.63;20.10;;;;;;;;;;5004846;28;20049;-75
2022/12/07 07:32:30;;;;;;;35.08;21.95;;;;;;;;;;5000876;28;20030;-74
2022/12/07 07:34:55;;;;;;;35.83;22.55;;;;;;;;;;5005225;28;20594;-75
2022/12/07 07:37:21;;;;;;;35.47;21.88;;;;;;;;;;5001723;28;20037;-75
2022/12/07 07:39:47;;;;;;;35.67;22.48;;;;;;;;;;5003245;28;20104;-74
2022/12/07 07:42:13;;;;;;;42.15;24.67;;;;;;;;;;5002930;28;20120;-75
2022/12/07 07:44:39;;;;;;;41.03;24.48;;;;;;;;;;4983899;28;20125;-75
2022/12/07 07:47:05;;;;;;;43.95;26.20;;;;;;;;;;5001306;28;20104;-74
2022/12/07 07:49:31;;;;;;;45.03;26.85;;;;;;;;;;5003549;28;20089;-75
2022/12/07 07:51:57;;;;;;;52.03;30.88;;;;;;;;;;5002424;28;20036;-74
2022/12/07 07:54:23;;;;;;;63.75;36.08;;;;;;;;;;5005007;28;20606;-75
2022/12/07 07:56:50;;;;;;;65.60;40.38;;;;;;;;;;5002565;28;20034;-75
2022/12/07 07:59:16;;;;;;;105.20;61.70;;;;;;;;;;5003275;28;20080;-75
2022/12/07 08:01:42;;;;;;;78.28;46.58;;;;;;;;;;4999106;28;20528;-75
2022/12/07 08:04:08;;;;;;;55.08;32.65;;;;;;;;;;5009055;28;20038;-75
2022/12/07 08:06:34;;;;;;;52.95;32.88;;;;;;;;;;5005986;28;20046;-75
2022/12/07 08:09:00;;;;;;;53.72;32.95;;;;;;;;;;5007990;28;20072;-75
2022/12/07 08:11:26;;;;;;;49.90;27.70;;;;;;;;;;5005537;28;20679;-74
2022/12/07 08:13:52;;;;;;;41.30;26.40;;;;;;;;;;5006881;28;20125;-75
2022/12/07 08:16:18;;;;;;;38.75;23.58;;;;;;;;;;5006204;28;20030;-75
2022/12/07 08:18:44;;;;;;;33.97;21.58;;;;;;;;;;5003882;28;20065;-75
2022/12/07 08:21:12;;;;;;;36.13;20.13;;;;;;;;;;5004410;28;20536;-75
2022/12/07 08:23:39;;;;;;;30.33;17.02;;;;;;;;;;5005294;28;20033;-75
2022/12/07 08:26:06;;;;;;;38.63;17.50;;;;;;;;;;5006428;28;20033;-75
2022/12/07 08:28:32;;;;;;;23.98;13.82;;;;;;;;;;5003400;28;20030;-75
2022/12/07 08:31:05;;;;;;;24.70;13.50;;;;;;;;;;5006941;28;20044;-75
2022/12/07 08:33:32;;;;;;;25.05;12.75;;;;;;;;;;5005627;28;20025;-75
2022/12/07 08:36:04;;;;;;;24.27;13.85;;;;;;;;;;5007293;28;20029;-75
2022/12/07 08:38:30;;;;;;;24.38;12.93;;;;;;;;;;5002401;28;20037;-75
2022/12/07 08:40:57;;;;;;;23.95;14.02;;;;;;;;;;5006018;28;20032;-74
2022/12/07 08:43:23;;;;;;;23.10;13.60;;;;;;;;;;5001259;28;20548;-74
2022/12/07 08:45:51;;;;;;;24.10;12.55;;;;;;;;;;5006974;28;20067;-75
2022/12/07 08:48:21;;;;;;;22.98;14.25;;;;;;;;;;5004852;28;20065;-75
2022/12/07 08:50:48;;;;;;;23.63;12.85;;;;;;;;;;5006551;28;20026;-75
2022/12/07 08:53:14;;;;;;;22.52;12.60;;;;;;;;;;5003046;28;20104;-75
2022/12/07 08:55:40;;;;;;;23.27;12.43;;;;;;;;;;4979616;28;20030;-74
2022/12/07 08:58:06;;;;;;;23.73;13.43;;;;;;;;;;5006834;28;20026;-75
2022/12/07 09:00:32;;;;;;;25.08;14.52;;;;;;;;;;5005154;28;20133;-75
2022/12/07 09:02:58;;;;;;;23.42;13.13;;;;;;;;;;4993019;28;20473;-74
2022/12/07 09:05:24;;;;;;;23.88;12.15;;;;;;;;;;5005059;28;20026;-75
2022/12/07 09:07:52;;;;;;;28.48;15.90;;;;;;;;;;4999521;28;20038;-75
2022/12/07 09:10:18;;;;;;;30.17;19.02;;;;;;;;;;4995019;28;20045;-74
2022/12/07 09:12:44;;;;;;;34.95;19.92;;;;;;;;;;5005524;28;20034;-75
2022/12/07 09:15:10;;;;;;;37.00;23.85;;;;;;;;;;5006113;28;20096;-74
2022/12/07 09:17:37;;;;;;;40.53;24.15;;;;;;;;;;5002456;28;20061;-74
2022/12/07 09:20:04;;;;;;;39.13;24.35;;;;;;;;;;5005445;28;20030;-75
2022/12/07 09:22:31;;;;;;;39.25;24.95;;;;;;;;;;5003733;28;20046;-75
2022/12/07 09:24:57;;;;;;;39.63;26.23;;;;;;;;;;5006864;28;20030;-74
2022/12/07 09:27:24;;;;;;;41.85;27.90;;;;;;;;;;5006265;28;20036;-75
2022/12/07 09:29:50;;;;;;;41.63;23.95;;;;;;;;;;5005602;28;20081;-75
2022/12/07 09:32:16;;;;;;;43.15;27.25;;;;;;;;;;5006001;28;20385;-75
2022/12/07 09:34:42;;;;;;;39.55;24.85;;;;;;;;;;5002836;28;20030;-75
2022/12/07 09:37:08;;;;;;;42.03;25.45;;;;;;;;;;5004755;28;20030;-75
2022/12/07 09:39:34;;;;;;;40.72;24.00;;;;;;;;;;4979967;28;20042;-75
2022/12/07 09:42:00;;;;;;;43.65;24.90;;;;;;;;;;5005623;28;20042;-75
2022/12/07 09:44:28;;;;;;;39.75;25.15;;;;;;;;;;5005101;28;20112;-75
2022/12/07 09:46:54;;;;;;;39.50;24.50;;;;;;;;;;5001789;28;20037;-75
2022/12/07 09:49:26;;;;;;;39.22;21.73;;;;;;;;;;5004931;28;20065;-75
2022/12/07 09:51:52;;;;;;;;;;;;;;;;;;5002246;28;20022;-75
2022/12/07 09:54:18;;;;;;;36.75;22.65;;;;;;;;;;5000107;28;19955;-75
2022/12/07 09:56:44;;;;;;;41.22;23.05;;;;;;;;;;5003551;28;20061;-75
2022/12/07 09:59:14;;;;;;;36.63;21.00;;;;;;;;;;5001591;28;20045;-74
2022/12/07 10:01:40;;;;;;;38.60;22.13;;;;;;;;;;5006131;28;20033;-75
2022/12/07 10:04:07;;;;;;;37.10;20.42;;;;;;;;;;5001409;28;20534;-75
2022/12/07 10:06:33;;;;;;;35.40;21.83;;;;;;;;;;5002304;28;20038;-75
2022/12/07 10:08:59;;;;;;;37.95;21.48;;;;;;;;;;5001523;28;20064;-75
2022/12/07 10:11:25;;;;;;;39.33;21.48;;;;;;;;;;5004353;28;20423;-75
2022/12/07 10:13:54;;;;;;;38.95;21.88;;;;;;;;;;5005011;28;20034;-75
2022/12/07 10:16:38;;;;;;;36.30;22.83;;;;;;;;;;5004828;28;20061;-75
2022/12/07 10:19:23;;;;;;;36.15;22.70;;;;;;;;;;4981673;28;20088;-74
2022/12/07 10:22:07;;;;;;;40.58;23.80;;;;;;;;;;5001790;28;20117;-75
2022/12/07 10:24:33;;;;;;;67.68;37.60;;;;;;;;;;5001157;28;20046;-75
2022/12/07 10:26:59;;;;;;;39.72;23.25;;;;;;;;;;5000260;28;20377;-75
2022/12/07 10:29:31;;;;;;;42.28;25.23;;;;;;;;;;5001376;28;20098;-75
2022/12/07 10:32:03;;;;;;;40.30;22.92;;;;;;;;;;5002783;28;20040;-75
2022/12/07 10:34:32;;;;;;;53.60;29.85;;;;;;;;;;5002578;28;20531;-75
2022/12/07 10:37:16;;;;;;;55.50;30.48;;;;;;;;;;5001235;28;20026;-75
2022/12/07 10:39:57;;;;;;;48.25;27.13;;;;;;;;;;5005172;28;20473;-74
2022/12/07 10:42:23;;;;;;;37.38;21.98;;;;;;;;;;4997996;28;20081;-75
2022/12/07 10:44:50;;;;;;;38.58;22.25;;;;;;;;;;4998940;28;20034;-75
2022/12/07 10:47:16;;;;;;;49.33;26.38;;;;;;;;;;5004020;28;20036;-75
2022/12/07 10:49:48;;;;;;;33.28;21.45;;;;;;;;;;5003029;28;20034;-75
2022/12/07 10:52:23;;;;;;;37.97;21.23;;;;;;;;;;5002015;28;20549;-75
2022/12/07 10:54:58;;;;;;;35.28;19.42;;;;;;;;;;5003378;28;20030;-75
2022/12/07 10:57:47;;;;;;;36.88;21.35;;;;;;;;;;5002580;28;20034;-75
2022/12/07 11:00:13;;;;;;;35.47;19.63;;;;;;;;;;5004436;28;20041;-75
2022/12/07 11:02:48;;;;;;;32.75;19.92;;;;;;;;;;5003398;28;20038;-74
2022/12/07 11:05:20;;;;;;;36.65;20.17;;;;;;;;;;5000650;28;20113;-75
2022/12/07 11:07:50;;;;;;;35.95;20.23;;;;;;;;;;5000528;28;20033;-75
2022/12/07 11:10:16;;;;;;;33.78;17.95;;;;;;;;;;5004380;28;20137;-75
2022/12/07 11:13:14;;;;;;;36.17;18.40;;;;;;;;;;5001873;28;20485;-75
2022/12/07 11:15:43;;;;;;;27.90;16.15;;;;;;;;;;5000421;28;20060;-74
2022/12/07 11:18:18;;;;;;;29.67;16.75;;;;;;;;;;4999105;28;20420;-74
2022/12/07 11:20:47;;;;;;;28.88;17.45;;;;;;;;;;5004887;28;20065;-75
2022/12/07 11:23:16;;;;;;;29.35;16.98;;;;;;;;;;5003061;28;20466;-74
2022/12/07 11:25:51;;;;;;;30.90;16.45;;;;;;;;;;5003761;28;20036;-75
2022/12/07 11:28:36;;;;;;;31.00;16.58;;;;;;;;;;5002588;28;20374;-75
2022/12/07 11:31:08;;;;;;;32.60;17.83;;;;;;;;;;4997086;28;20129;-75
2022/12/07 11:33:45;;;;;;;30.10;17.05;;;;;;;;;;4987793;28;20057;-75
2022/12/07 11:36:16;;;;;;;38.47;20.10;;;;;;;;;;5005623;28;20061;-75
2022/12/07 11:39:02;;;;;;;32.55;17.52;;;;;;;;;;5006361;28;20525;-75
2022/12/07 11:41:35;;;;;;;30.60;16.48;;;;;;;;;;5006563;28;20038;-75
2022/12/07 11:44:02;;;;;;;28.08;17.90;;;;;;;;;;5005643;28;20867;-75
2022/12/07 11:46:36;;;;;;;30.38;16.83;;;;;;;;;;4987006;28;20482;-75
2022/12/07 11:49:04;;;;;;;33.47;17.75;;;;;;;;;;5008014;28;20030;-75
2022/12/07 11:51:33;;;;;;;33.35;17.98;;;;;;;;;;4987593;28;20065;-75
2022/12/07 11:54:02;;;;;;;30.17;17.98;;;;;;;;;;5007496;28;20615;-75
2022/12/07 11:56:30;;;;;;;32.35;19.45;;;;;;;;;;5003530;28;20034;-75
2022/12/07 11:59:10;;;;;;;34.22;18.85;;;;;;;;;;5006662;28;20034;-75
2022/12/07 12:01:38;;;;;;;30.13;18.17;;;;;;;;;;5005529;28;20030;-75
2022/12/07 12:04:19;;;;;;;31.33;19.25;;;;;;;;;;5008684;28;20025;-75
2022/12/07 12:06:45;;;;;;;31.38;19.85;;;;;;;;;;4988212;28;20030;-74
2022/12/07 12:09:16;;;;;;;36.45;21.88;;;;;;;;;;4985706;28;20048;-74
2022/12/07 12:11:42;;;;;;;29.35;17.27;;;;;;;;;;5002263;28;20061;-74
2022/12/07 12:14:17;;;;;;;26.00;15.80;;;;;;;;;;4989692;28;20073;-75
2022/12/07 12:17:09;;;;;;;34.97;19.75;;;;;;;;;;5005471;28;20469;-75
2022/12/07 12:19:55;;;;;;;27.83;16.48;;;;;;;;;;4965981;28;20046;-75
2022/12/07 12:22:22;;;;;;;33.80;20.38;;;;;;;;;;5002174;28;20034;-75
2022/12/07 12:24:51;;;;;;;30.92;16.25;;;;;;;;;;5006582;28;20473;-75
2022/12/07 12:27:26;;;;;;;29.90;17.98;;;;;;;;;;5002921;28;20038;-75
2022/12/07 12:29:54;;;;;;;29.60;18.42;;;;;;;;;;5007825;28;20370;-75
2022/12/07 12:32:29;;;;;;;30.10;18.42;;;;;;;;;;5002932;28;20034;-74
2022/12/07 12:35:19;;;;;;;31.00;19.05;;;;;;;;;;5005799;28;20061;-75
2022/12/07 12:37:46;;;;;;;32.17;18.92;;;;;;;;;;5004797;28;20030;-75
2022/12/07 12:40:15;;;;;;;28.90;16.52;;;;;;;;;;5003897;28;20042;-75
2022/12/07 12:42:47;;;;;;;26.05;15.98;;;;;;;;;;5002659;28;20033;-75
2022/12/07 12:45:39;;;;;;;28.45;17.83;;;;;;;;;;5000885;28;20116;-75
2022/12/07 12:48:25;;;;;;;29.13;16.60;;;;;;;;;;4999326;28;20049;-75
2022/12/07 12:51:11;;;;;;;26.92;15.50;;;;;;;;;;5001715;28;20041;-75
2022/12/07 12:53:37;;;;;;;27.90;16.80;;;;;;;;;;5004626;28;20045;-75
2022/12/07 12:56:23;;;;;;;23.85;15.20;;;;;;;;;;5003042;28;20034;-75
2022/12/07 12:58:49;;;;;;;27.80;17.33;;;;;;;;;;4988711;28;20034;-75
2022/12/07 13:01:44;;;;;;;23.70;15.30;;;;;;;;;;5006118;28;20026;-75
2022/12/07 13:04:27;;;;;;;22.92;14.13;;;;;;;;;;4988233;28;20061;-75
2022/12/07 13:06:53;;;;;;;23.95;14.45;;;;;;;;;;5001125;28;20021;-75
2022/12/07 13:09:46;;;;;;;23.02;14.10;;;;;;;;;;5005081;28;20038;-75
2022/12/07 13:12:14;;;;;;;24.35;14.77;;;;;;;;;;5000207;28;20103;-75
2022/12/07 13:14:56;;;;;;;23.27;13.77;;;;;;;;;;5005063;28;20571;-74
2022/12/07 13:17:31;;;;;;;21.73;13.27;;;;;;;;;;5001993;28;20073;-75
2022/12/07 13:20:06;;;;;;;22.63;14.38;;;;;;;;;;5001773;28;20520;-75
2022/12/07 13:22:37;;;;;;;21.80;13.77;;;;;;;;;;5001929;28;20788;-75
2022/12/07 13:25:19;;;;;;;20.17;12.45;;;;;;;;;;5005123;28;20037;-75
2022/12/07 13:27:49;;;;;;;21.45;12.80;;;;;;;;;;5004769;28;20492;-75
2022/12/07 13:30:17;;;;;;;20.63;12.40;;;;;;;;;;5001740;28;20062;-75
2022/12/07 13:32:44;;;;;;;23.23;12.88;;;;;;;;;;5005625;28;20037;-75
2022/12/07 13:35:28;;;;;;;22.35;14.35;;;;;;;;;;5004950;28;20034;-75
2022/12/07 13:37:54;;;;;;;23.13;12.20;;;;;;;;;;5005618;28;20463;-75
2022/12/07 13:40:21;;;;;;;23.38;13.32;;;;;;;;;;5005316;28;20496;-75
2022/12/07 13:42:47;;;;;;;24.00;14.45;;;;;;;;;;5006116;28;20034;-75
2022/12/07 13:48:12;;;;;;;20.90;13.32;;;;;;;;;;5004794;28;20041;-74
2022/12/07 13:50:38;;;;;;;21.65;14.20;;;;;;;;;;5001081;28;20497;-75
2022/12/07 13:53:11;;;;;;;21.90;13.23;;;;;;;;;;5000561;28;20068;-75
2022/12/07 13:55:44;;;;;;;25.42;14.30;;;;;;;;;;5005184;28;20078;-74
2022/12/07 13:58:10;;;;;;;23.90;13.70;;;;;;;;;;5002149;28;20058;-75
2022/12/07 14:00:37;;;;;;;23.52;15.15;;;;;;;;;;5002869;28;20037;-75
2022/12/07 14:03:24;;;;;;;25.63;14.77;;;;;;;;;;5001858;28;20029;-75
2022/12/07 14:06:03;;;;;;;30.50;17.48;;;;;;;;;;5004499;28;20066;-75
2022/12/07 14:08:30;;;;;;;28.67;17.08;;;;;;;;;;5005575;28;20787;-75
2022/12/07 14:10:57;;;;;;;25.10;15.25;;;;;;;;;;5001091;28;20045;-75
2022/12/07 14:13:44;;;;;;;30.42;19.67;;;;;;;;;;4985056;28;20882;-75
2022/12/07 14:16:25;;;;;;;31.65;19.10;;;;;;;;;;5003841;28;20065;-75
2022/12/07 14:18:51;;;;;;;33.47;19.70;;;;;;;;;;5002360;28;20037;-75
2022/12/07 14:21:18;;;;;;;32.35;19.83;;;;;;;;;;5001585;28;20773;-75
2022/12/07 14:23:45;;;;;;;35.40;20.65;;;;;;;;;;5004094;28;20096;-75
2022/12/07 14:26:15;;;;;;;35.67;22.23;;;;;;;;;;5001287;28;20030;-75
2022/12/07 14:28:43;;;;;;;32.80;19.45;;;;;;;;;;5003275;28;20129;-75
2022/12/07 14:31:12;;;;;;;33.00;20.35;;;;;;;;;;5000984;28;20092;-75
2022/12/07 14:33:39;;;;;;;31.77;21.35;;;;;;;;;;5003238;28;21767;-74